createdAt,value
2022-11-02T00:01:40.865Z,12.58
2022-11-02T00:06:42.510Z,12.54
2022-11-02T00:11:44.141Z,12.52
2022-11-02T00:16:45.983Z,12.46
2022-11-02T00:21:47.554Z,12.43
2022-11-02T00:26:49.114Z,12.39
2022-11-02T00:31:50.896Z,12.37
2022-11-02T00:36:55.616Z,12.33
2022-11-02T00:41:57.332Z,12.27
2022-11-02T00:46:58.870Z,12.26
2022-11-02T00:52:00.477Z,12.31
2022-11-02T01:02:08.971Z,12.11
2022-11-02T01:07:10.612Z,12.06
2022-11-02T01:12:12.153Z,12.05
2022-11-02T01:17:13.838Z,12.00
2022-11-02T01:22:15.401Z,12.01
2022-11-02T01:27:16.947Z,11.99
2022-11-02T01:32:18.559Z,11.98
2022-11-02T01:37:20.105Z,11.93
2022-11-02T01:42:24.458Z,11.91
2022-11-02T01:47:31.389Z,11.91
2022-11-02T01:52:36.233Z,11.92
2022-11-02T01:57:39.067Z,11.93
2022-11-02T02:02:54.663Z,11.94
2022-11-02T02:07:56.706Z,11.91
2022-11-02T02:12:58.439Z,11.88
2022-11-02T02:18:07.056Z,11.84
2022-11-02T02:23:33.290Z,11.76
2022-11-02T02:29:11.710Z,11.74
2022-11-02T02:34:20.103Z,11.78
2022-11-02T02:39:43.151Z,11.86
2022-11-02T02:45:04.550Z,11.98
2022-11-02T02:50:15.680Z,11.95
2022-11-02T02:55:23.019Z,11.94
2022-11-02T03:00:24.631Z,11.94
2022-11-02T03:05:29.653Z,11.90
2022-11-02T03:10:54.202Z,11.82
2022-11-02T03:16:02.870Z,11.68
2022-11-02T03:21:13.377Z,11.64
2022-11-02T03:26:27.600Z,11.57
2022-11-02T03:31:39.136Z,11.50
2022-11-02T03:36:51.119Z,11.44
2022-11-02T03:41:55.159Z,11.47
2022-11-02T03:47:01.952Z,11.47
2022-11-02T03:52:08.798Z,11.46
2022-11-02T03:57:18.543Z,11.50
2022-11-02T04:02:20.225Z,11.42
2022-11-02T04:07:27.585Z,11.36
2022-11-02T04:12:47.625Z,11.31
2022-11-02T04:18:07.753Z,11.25
2022-11-02T04:23:29.825Z,11.22
2022-11-02T04:28:31.498Z,11.18
2022-11-02T04:33:33.062Z,11.05
2022-11-02T04:38:40.392Z,11.04
2022-11-02T04:43:41.958Z,10.97
2022-11-02T04:48:43.496Z,10.90
2022-11-02T04:53:45.084Z,10.87
2022-11-02T04:58:51.040Z,10.77
2022-11-02T05:03:54.083Z,10.66
2022-11-02T05:08:56.039Z,10.54
2022-11-02T05:13:57.585Z,10.48
2022-11-02T05:18:59.147Z,10.40
2022-11-02T05:24:00.716Z,10.39
2022-11-02T05:29:02.773Z,10.32
2022-11-02T05:34:04.394Z,10.35
2022-11-02T05:39:06.018Z,10.31
2022-11-02T05:44:07.603Z,10.25
2022-11-02T05:49:09.205Z,10.19
2022-11-02T05:54:10.748Z,10.17
2022-11-02T05:59:12.324Z,10.26
2022-11-02T06:04:13.977Z,10.42
2022-11-02T06:09:15.551Z,10.55
2022-11-02T06:14:17.101Z,10.65
2022-11-02T06:19:18.656Z,10.70
2022-11-02T06:24:20.256Z,10.77
2022-11-02T06:29:21.873Z,10.88
2022-11-02T06:34:23.433Z,10.97
2022-11-02T06:39:25.125Z,11.06
2022-11-02T06:44:26.672Z,11.11
2022-11-02T06:49:28.207Z,11.27
2022-11-02T06:54:29.730Z,11.46
2022-11-02T06:59:31.318Z,11.61
2022-11-02T07:04:32.869Z,11.76
2022-11-02T07:09:35.092Z,11.92
2022-11-02T07:14:36.639Z,12.07
2022-11-02T07:19:38.227Z,12.22
2022-11-02T07:24:39.809Z,12.44
2022-11-02T07:29:41.394Z,12.66
2022-11-02T07:34:42.949Z,12.81
2022-11-02T07:39:44.523Z,12.92
2022-11-02T07:44:46.061Z,13.03
2022-11-02T07:49:47.627Z,13.10
2022-11-02T07:54:49.188Z,13.35
2022-11-02T07:59:50.729Z,13.71
2022-11-02T08:04:52.720Z,14.00
2022-11-02T08:09:54.306Z,14.21
2022-11-02T08:14:56.835Z,14.23
2022-11-02T08:19:58.431Z,14.54
2022-11-02T08:25:00.016Z,14.56
2022-11-02T08:30:01.602Z,14.70
2022-11-02T08:35:03.242Z,14.89
2022-11-02T08:40:05.293Z,15.24
2022-11-02T08:45:07.461Z,15.63
2022-11-02T08:50:10.424Z,15.67
2022-11-02T08:55:12.009Z,15.71
2022-11-02T09:00:14.219Z,15.72
2022-11-02T09:05:15.848Z,15.85
2022-11-02T09:10:17.398Z,15.85
2022-11-02T09:15:19.311Z,15.93
2022-11-02T09:20:22.815Z,16.07
2022-11-02T09:25:24.582Z,16.01
2022-11-02T09:30:28.832Z,16.20
2022-11-02T09:35:43.757Z,16.43
2022-11-02T09:40:54.863Z,16.67
2022-11-02T09:46:11.028Z,16.77
2022-11-02T09:51:20.792Z,17.06
2022-11-02T09:56:22.636Z,17.44
2022-11-02T10:02:05.427Z,17.33
2022-11-02T10:07:35.981Z,17.68
2022-11-02T10:12:43.396Z,17.16
2022-11-02T10:17:47.786Z,17.14
2022-11-02T10:22:49.620Z,17.34
2022-11-02T10:28:01.097Z,17.45
2022-11-02T10:33:12.971Z,17.49
2022-11-02T10:38:24.497Z,17.31
2022-11-02T10:43:40.813Z,17.13
2022-11-02T10:49:17.652Z,17.49
2022-11-02T10:54:23.989Z,17.09
2022-11-02T10:59:30.989Z,17.14
2022-11-02T11:04:34.240Z,17.53
2022-11-02T11:09:46.830Z,17.14
2022-11-02T11:20:33.464Z,16.87
2022-11-02T11:25:35.458Z,16.92
2022-11-02T11:30:58.863Z,17.01
2022-11-02T11:36:00.612Z,16.93
2022-11-02T11:41:03.652Z,17.14
2022-11-02T11:46:07.797Z,17.25
2022-11-02T11:51:54.027Z,17.31
2022-11-02T11:57:16.473Z,17.36
2022-11-02T12:02:30.776Z,17.39
2022-11-02T12:07:55.860Z,17.38
2022-11-02T12:13:03.558Z,17.37
2022-11-02T12:18:42.721Z,17.38
2022-11-02T12:23:44.261Z,17.42
2022-11-02T12:29:22.034Z,17.25
2022-11-02T12:35:27.400Z,17.41
2022-11-02T12:40:52.887Z,17.14
2022-11-02T12:46:07.664Z,17.41
2022-11-02T12:51:14.781Z,17.49
2022-11-02T12:56:44.350Z,17.37
2022-11-02T13:01:51.072Z,17.18
2022-11-02T13:07:02.402Z,17.12
2022-11-02T13:12:10.172Z,17.06
2022-11-02T13:17:21.518Z,16.94
2022-11-02T13:22:28.652Z,16.83
2022-11-02T13:27:37.604Z,16.77
2022-11-02T13:33:00.686Z,16.80
2022-11-02T13:38:34.192Z,16.69
2022-11-02T13:44:16.684Z,16.72
2022-11-02T13:49:35.408Z,16.58
2022-11-02T13:54:42.952Z,16.53
2022-11-02T13:59:45.426Z,16.64
2022-11-02T14:04:48.651Z,16.39
2022-11-02T14:09:51.047Z,16.27
2022-11-02T14:15:14.299Z,16.17
2022-11-02T14:20:34.433Z,16.21
2022-11-02T14:25:56.294Z,16.17
2022-11-02T14:31:03.691Z,16.17
2022-11-02T14:36:17.164Z,16.26
2022-11-02T14:41:44.177Z,16.22
2022-11-02T14:46:56.845Z,15.98
2022-11-02T14:52:13.638Z,15.96
2022-11-02T14:57:18.121Z,15.90
2022-11-02T15:02:31.287Z,15.74
2022-11-02T15:07:38.514Z,15.68
2022-11-02T15:12:41.354Z,15.72
2022-11-02T15:17:43.152Z,15.33
2022-11-02T15:22:52.932Z,15.23
2022-11-02T15:28:06.564Z,15.30
2022-11-02T15:33:35.790Z,15.28
2022-11-02T15:38:40.167Z,15.26
2022-11-02T15:49:49.621Z,15.40
2022-11-02T15:55:28.841Z,15.29
2022-11-02T16:00:30.484Z,14.99
2022-11-02T16:05:41.831Z,15.05
2022-11-02T16:10:43.861Z,14.91
2022-11-02T16:15:48.872Z,14.86
2022-11-02T16:20:51.114Z,14.76
2022-11-02T16:25:56.290Z,14.64
2022-11-02T16:31:17.251Z,14.60
2022-11-02T16:36:31.314Z,14.50
2022-11-02T16:41:34.706Z,14.29
2022-11-02T16:46:58.442Z,14.15
2022-11-02T16:52:17.337Z,14.00
2022-11-02T16:57:23.033Z,13.98
2022-11-02T17:02:36.570Z,13.87
2022-11-02T17:07:41.909Z,13.75
2022-11-02T17:12:45.314Z,13.67
2022-11-02T17:17:47.054Z,13.50
2022-11-02T17:22:58.343Z,13.42
2022-11-02T17:28:03.797Z,13.36
2022-11-02T17:33:12.183Z,13.28
2022-11-02T17:38:14.112Z,13.26
2022-11-02T17:43:15.677Z,13.17
2022-11-02T17:48:17.196Z,13.09
2022-11-02T17:53:18.785Z,13.04
2022-11-02T17:58:20.391Z,13.03
2022-11-02T18:03:25.517Z,12.99
2022-11-02T18:08:28.845Z,12.96
2022-11-02T18:13:30.395Z,12.92
2022-11-02T18:18:31.936Z,12.89
2022-11-02T18:23:35.173Z,12.87
2022-11-02T18:28:36.755Z,12.91
2022-11-02T18:33:38.322Z,12.92
2022-11-02T18:38:39.980Z,12.94
2022-11-02T18:43:41.542Z,12.95
2022-11-02T18:48:43.265Z,12.86
2022-11-02T18:53:44.829Z,12.85
2022-11-02T18:58:48.707Z,12.67
2022-11-02T19:03:56.057Z,12.62
2022-11-02T19:09:16.274Z,12.56
2022-11-02T19:14:18.432Z,12.51
2022-11-02T19:19:20.660Z,12.55
2022-11-02T19:24:22.542Z,12.38
2022-11-02T19:29:24.257Z,12.37
2022-11-02T19:34:25.832Z,12.27
2022-11-02T19:39:27.414Z,12.11
2022-11-02T19:44:29.594Z,12.17
2022-11-02T19:49:31.151Z,12.10
2022-11-02T19:54:32.731Z,12.08
2022-11-02T19:59:34.300Z,12.05
2022-11-02T20:04:41.980Z,12.00
2022-11-02T20:09:44.910Z,11.97
2022-11-02T20:14:46.482Z,11.95
2022-11-02T20:19:48.033Z,11.88
2022-11-02T20:24:49.558Z,11.87
2022-11-02T20:29:51.096Z,11.85
2022-11-02T20:34:52.740Z,11.80
2022-11-02T20:39:54.262Z,11.75
2022-11-02T20:44:56.360Z,11.70
2022-11-02T20:49:57.900Z,11.67
2022-11-02T20:55:01.063Z,11.64
2022-11-02T21:00:02.755Z,11.58
2022-11-02T21:05:04.959Z,11.56
2022-11-02T21:10:07.390Z,11.49
2022-11-02T21:15:09.223Z,11.46
2022-11-02T21:20:33.038Z,11.40
2022-11-02T21:25:33.950Z,11.40
2022-11-02T21:30:35.568Z,11.37
2022-11-02T21:35:37.353Z,11.29
2022-11-02T21:40:38.909Z,11.25
2022-11-02T21:45:40.482Z,11.16
2022-11-02T21:50:42.022Z,11.07
2022-11-02T21:55:43.551Z,10.94
2022-11-02T22:01:03.582Z,10.90
2022-11-02T22:06:05.445Z,10.78
2022-11-02T22:11:12.176Z,10.61
2022-11-02T22:16:17.625Z,10.60
2022-11-02T22:21:19.649Z,10.53
2022-11-02T22:26:23.265Z,10.56
2022-11-02T22:31:27.958Z,10.55
2022-11-02T22:36:31.847Z,10.67
2022-11-02T22:41:41.364Z,10.70
2022-11-02T22:46:48.319Z,10.67
2022-11-02T22:51:50.582Z,10.70
2022-11-02T22:56:52.122Z,10.66
2022-11-02T23:01:53.714Z,10.63
2022-11-02T23:06:55.327Z,10.59
2022-11-02T23:11:56.908Z,10.53
2022-11-02T23:16:58.835Z,10.48
2022-11-02T23:22:25.152Z,10.49
2022-11-02T23:27:26.849Z,10.45
2022-11-02T23:32:28.442Z,10.47
2022-11-02T23:37:30.682Z,10.42
2022-11-02T23:42:32.439Z,10.40
2022-11-02T23:47:52.278Z,10.41
2022-11-02T23:53:12.399Z,10.33
2022-11-02T23:58:14.328Z,10.26
